sensor_id;sensor_type;location;lat;lon;timestamp;pressure;altitude;pressure_sealevel;temperature;humidity
41250;BME280;26984;59.928;30.306;2023-06-26T00:00:16;101382.00;;;18.81;100.00
41250;BME280;26984;59.928;30.306;2023-06-26T00:02:45;101380.63;;;18.62;100.00
41250;BME280;26984;59.928;30.306;2023-06-26T00:05:13;101372.66;;;18.60;100.00
41250;BME280;26984;59.928;30.306;2023-06-26T00:07:42;101373.06;;;18.86;100.00
41250;BME280;26984;59.928;30.306;2023-06-26T00:10:10;101380.63;;;18.62;100.00
41250;BME280;26984;59.928;30.306;2023-06-26T00:12:38;101388.16;;;18.55;100.00
41250;BME280;26984;59.928;30.306;2023-06-26T00:15:07;101381.28;;;18.52;100.00
41250;BME280;26984;59.928;30.306;2023-06-26T00:17:35;101383.47;;;18.50;100.00
41250;BME280;26984;59.928;30.306;2023-06-26T00:20:04;101379.56;;;18.46;100.00
41250;BME280;26984;59.928;30.306;2023-06-26T00:22:38;101368.84;;;18.39;100.00
41250;BME280;26984;59.928;30.306;2023-06-26T00:25:08;101373.13;;;18.35;100.00
41250;BME280;26984;59.928;30.306;2023-06-26T00:27:36;101376.13;;;18.34;100.00
41250;BME280;26984;59.928;30.306;2023-06-26T00:30:05;101380.44;;;18.30;100.00
41250;BME280;26984;59.928;30.306;2023-06-26T00:32:33;101380.34;;;18.25;100.00
41250;BME280;26984;59.928;30.306;2023-06-26T00:35:04;101380.91;;;18.27;100.00
41250;BME280;26984;59.928;30.306;2023-06-26T00:37:31;101377.53;;;18.19;100.00
41250;BME280;26984;59.928;30.306;2023-06-26T00:40:00;101379.59;;;18.12;100.00
41250;BME280;26984;59.928;30.306;2023-06-26T00:42:30;101375.41;;;18.05;100.00
41250;BME280;26984;59.928;30.306;2023-06-26T00:44:58;101373.81;;;17.92;100.00
41250;BME280;26984;59.928;30.306;2023-06-26T00:47:26;101379.41;;;17.85;100.00
41250;BME280;26984;59.928;30.306;2023-06-26T00:49:54;101376.63;;;17.80;100.00
41250;BME280;26984;59.928;30.306;2023-06-26T00:52:24;101379.09;;;17.82;100.00
41250;BME280;26984;59.928;30.306;2023-06-26T00:54:52;101363.25;;;17.79;100.00
41250;BME280;26984;59.928;30.306;2023-06-26T00:57:20;101370.69;;;17.83;100.00
41250;BME280;26984;59.928;30.306;2023-06-26T00:59:50;101362.91;;;17.92;100.00
41250;BME280;26984;59.928;30.306;2023-06-26T01:02:21;101361.44;;;18.01;100.00
41250;BME280;26984;59.928;30.306;2023-06-26T01:04:51;101369.78;;;18.11;100.00
41250;BME280;26984;59.928;30.306;2023-06-26T01:07:21;101371.81;;;18.21;100.00
41250;BME280;26984;59.928;30.306;2023-06-26T01:09:50;101359.91;;;18.27;100.00
41250;BME280;26984;59.928;30.306;2023-06-26T01:12:18;101361.66;;;18.33;100.00
41250;BME280;26984;59.928;30.306;2023-06-26T01:14:50;101361.81;;;18.43;100.00
41250;BME280;26984;59.928;30.306;2023-06-26T01:17:19;101361.03;;;18.48;100.00
41250;BME280;26984;59.928;30.306;2023-06-26T01:19:48;101365.25;;;18.56;100.00
41250;BME280;26984;59.928;30.306;2023-06-26T01:22:22;101366.38;;;18.60;100.00
41250;BME280;26984;59.928;30.306;2023-06-26T01:25:01;101358.78;;;18.62;100.00
41250;BME280;26984;59.928;30.306;2023-06-26T01:27:33;101362.91;;;18.64;100.00
41250;BME280;26984;59.928;30.306;2023-06-26T01:30:02;101363.16;;;18.63;100.00
41250;BME280;26984;59.928;30.306;2023-06-26T01:32:31;101355.59;;;18.70;100.00
41250;BME280;26984;59.928;30.306;2023-06-26T01:35:01;101354.19;;;18.67;100.00
41250;BME280;26984;59.928;30.306;2023-06-26T01:37:30;101367.69;;;18.74;100.00
41250;BME280;26984;59.928;30.306;2023-06-26T01:39:58;101363.59;;;18.72;100.00
41250;BME280;26984;59.928;30.306;2023-06-26T01:42:25;101357.78;;;18.68;100.00
41250;BME280;26984;59.928;30.306;2023-06-26T01:44:56;101359.59;;;18.62;100.00
41250;BME280;26984;59.928;30.306;2023-06-26T01:47:27;101356.06;;;18.62;100.00
41250;BME280;26984;59.928;30.306;2023-06-26T01:50:01;101358.47;;;18.58;100.00
41250;BME280;26984;59.928;30.306;2023-06-26T01:52:37;101360.44;;;18.63;100.00
41250;BME280;26984;59.928;30.306;2023-06-26T01:55:12;101353.31;;;18.62;100.00
41250;BME280;26984;59.928;30.306;2023-06-26T01:57:45;101362.66;;;18.66;100.00
41250;BME280;26984;59.928;30.306;2023-06-26T02:00:17;101358.19;;;18.77;100.00
41250;BME280;26984;59.928;30.306;2023-06-26T02:02:45;101351.13;;;18.81;100.00
41250;BME280;26984;59.928;30.306;2023-06-26T02:05:14;101349.63;;;18.90;100.00
41250;BME280;26984;59.928;30.306;2023-06-26T02:07:42;101359.94;;;19.10;100.00
41250;BME280;26984;59.928;30.306;2023-06-26T02:10:11;101359.56;;;19.23;100.00
41250;BME280;26984;59.928;30.306;2023-06-26T02:12:39;101360.28;;;19.41;100.00
41250;BME280;26984;59.928;30.306;2023-06-26T02:15:08;101363.16;;;19.56;100.00
41250;BME280;26984;59.928;30.306;2023-06-26T02:17:38;101352.16;;;19.73;100.00
41250;BME280;26984;59.928;30.306;2023-06-26T02:20:07;101348.91;;;19.76;100.00
41250;BME280;26984;59.928;30.306;2023-06-26T02:22:36;101362.16;;;19.89;100.00
41250;BME280;26984;59.928;30.306;2023-06-26T02:25:05;101338.00;;;19.81;100.00
41250;BME280;26984;59.928;30.306;2023-06-26T02:27:33;101357.59;;;20.00;100.00
41250;BME280;26984;59.928;30.306;2023-06-26T02:30:01;101341.19;;;20.00;100.00
41250;BME280;26984;59.928;30.306;2023-06-26T02:32:29;101350.53;;;20.09;100.00
41250;BME280;26984;59.928;30.306;2023-06-26T02:34:58;101354.69;;;20.17;100.00
41250;BME280;26984;59.928;30.306;2023-06-26T02:37:26;101353.66;;;20.23;99.93
41250;BME280;26984;59.928;30.306;2023-06-26T02:39:54;101352.84;;;20.27;98.05
41250;BME280;26984;59.928;30.306;2023-06-26T02:42:22;101354.50;;;20.28;98.14
41250;BME280;26984;59.928;30.306;2023-06-26T02:44:50;101363.03;;;20.32;98.54
41250;BME280;26984;59.928;30.306;2023-06-26T02:47:18;101358.66;;;20.36;98.24
41250;BME280;26984;59.928;30.306;2023-06-26T02:49:47;101356.47;;;20.38;97.52
41250;BME280;26984;59.928;30.306;2023-06-26T02:52:16;101352.91;;;20.32;97.86
41250;BME280;26984;59.928;30.306;2023-06-26T02:54:45;101360.22;;;20.22;98.11
41250;BME280;26984;59.928;30.306;2023-06-26T02:57:14;101357.69;;;20.15;98.86
41250;BME280;26984;59.928;30.306;2023-06-26T02:59:44;101352.44;;;20.08;99.83
41250;BME280;26984;59.928;30.306;2023-06-26T03:02:13;101363.91;;;20.05;99.83
41250;BME280;26984;59.928;30.306;2023-06-26T03:04:45;101360.03;;;19.96;100.00
41250;BME280;26984;59.928;30.306;2023-06-26T03:07:16;101354.03;;;19.99;100.00
41250;BME280;26984;59.928;30.306;2023-06-26T03:09:43;101354.81;;;19.95;100.00
41250;BME280;26984;59.928;30.306;2023-06-26T03:12:12;101353.97;;;19.94;100.00
41250;BME280;26984;59.928;30.306;2023-06-26T03:14:42;101346.91;;;19.98;100.00
41250;BME280;26984;59.928;30.306;2023-06-26T03:17:10;101351.31;;;20.04;100.00
41250;BME280;26984;59.928;30.306;2023-06-26T03:19:44;101350.53;;;20.09;100.00
41250;BME280;26984;59.928;30.306;2023-06-26T03:22:22;101353.84;;;20.11;99.29
41250;BME280;26984;59.928;30.306;2023-06-26T03:24:50;101342.31;;;20.09;99.60
41250;BME280;26984;59.928;30.306;2023-06-26T03:27:18;101353.91;;;20.21;100.00
41250;BME280;26984;59.928;30.306;2023-06-26T03:29:47;101353.41;;;20.29;100.00
41250;BME280;26984;59.928;30.306;2023-06-26T03:32:16;101349.03;;;20.28;100.00
41250;BME280;26984;59.928;30.306;2023-06-26T03:34:44;101350.97;;;20.28;100.00
41250;BME280;26984;59.928;30.306;2023-06-26T03:37:12;101352.84;;;20.27;100.00
41250;BME280;26984;59.928;30.306;2023-06-26T03:39:42;101355.84;;;20.26;100.00
41250;BME280;26984;59.928;30.306;2023-06-26T03:42:10;101352.81;;;20.22;100.00
41250;BME280;26984;59.928;30.306;2023-06-26T03:44:38;101347.66;;;20.31;100.00
41250;BME280;26984;59.928;30.306;2023-06-26T03:47:06;101347.72;;;20.36;100.00
41250;BME280;26984;59.928;30.306;2023-06-26T03:49:36;101362.00;;;20.48;100.00
41250;BME280;26984;59.928;30.306;2023-06-26T03:52:05;101359.88;;;20.55;100.00
41250;BME280;26984;59.928;30.306;2023-06-26T03:54:33;101346.72;;;20.52;100.00
41250;BME280;26984;59.928;30.306;2023-06-26T03:57:03;101349.22;;;20.54;100.00
41250;BME280;26984;59.928;30.306;2023-06-26T03:59:31;101351.38;;;20.52;100.00
41250;BME280;26984;59.928;30.306;2023-06-26T04:01:58;101351.44;;;20.57;100.00
41250;BME280;26984;59.928;30.306;2023-06-26T04:04:26;101350.84;;;20.55;100.00
41250;BME280;26984;59.928;30.306;2023-06-26T04:06:55;101353.34;;;20.56;100.00
41250;BME280;26984;59.928;30.306;2023-06-26T04:09:23;101341.00;;;20.54;100.00
41250;BME280;26984;59.928;30.306;2023-06-26T04:11:51;101355.34;;;20.71;100.00
41250;BME280;26984;59.928;30.306;2023-06-26T04:14:21;101353.72;;;20.80;100.00
41250;BME280;26984;59.928;30.306;2023-06-26T04:16:49;101357.84;;;20.88;100.00
41250;BME280;26984;59.928;30.306;2023-06-26T04:19:16;101347.22;;;20.97;100.00
41250;BME280;26984;59.928;30.306;2023-06-26T04:21:44;101352.47;;;21.09;100.00
41250;BME280;26984;59.928;30.306;2023-06-26T04:24:12;101357.44;;;21.17;100.00
41250;BME280;26984;59.928;30.306;2023-06-26T04:26:40;101352.53;;;21.24;100.00
41250;BME280;26984;59.928;30.306;2023-06-26T04:29:09;101353.34;;;21.29;100.00
41250;BME280;26984;59.928;30.306;2023-06-26T04:31:38;101356.41;;;21.38;99.80
41250;BME280;26984;59.928;30.306;2023-06-26T04:34:07;101340.78;;;21.44;98.76
41250;BME280;26984;59.928;30.306;2023-06-26T04:36:34;101350.66;;;21.55;97.71
41250;BME280;26984;59.928;30.306;2023-06-26T04:39:05;101350.41;;;21.62;97.32
41250;BME280;26984;59.928;30.306;2023-06-26T04:41:33;101345.47;;;21.69;96.55
41250;BME280;26984;59.928;30.306;2023-06-26T04:44:01;101331.22;;;21.72;95.83
41250;BME280;26984;59.928;30.306;2023-06-26T04:46:29;101337.78;;;21.76;94.68
41250;BME280;26984;59.928;30.306;2023-06-26T04:48:58;101341.09;;;21.88;93.57
41250;BME280;26984;59.928;30.306;2023-06-26T04:51:26;101333.16;;;21.92;92.01
41250;BME280;26984;59.928;30.306;2023-06-26T04:53:55;101335.03;;;22.02;92.11
41250;BME280;26984;59.928;30.306;2023-06-26T04:56:23;101329.84;;;22.10;91.31
41250;BME280;26984;59.928;30.306;2023-06-26T04:58:51;101329.56;;;22.22;88.85
41250;BME280;26984;59.928;30.306;2023-06-26T05:01:19;101338.88;;;22.26;87.59
41250;BME280;26984;59.928;30.306;2023-06-26T05:03:47;101330.66;;;22.31;87.08
41250;BME280;26984;59.928;30.306;2023-06-26T05:06:17;101333.38;;;22.36;86.88
41250;BME280;26984;59.928;30.306;2023-06-26T05:08:44;101336.13;;;22.41;86.95
41250;BME280;26984;59.928;30.306;2023-06-26T05:11:12;101322.34;;;22.52;85.50
41250;BME280;26984;59.928;30.306;2023-06-26T05:13:40;101334.72;;;22.49;84.77
41250;BME280;26984;59.928;30.306;2023-06-26T05:16:09;101338.84;;;22.46;84.45
41250;BME280;26984;59.928;30.306;2023-06-26T05:18:37;101334.16;;;22.52;83.86
41250;BME280;26984;59.928;30.306;2023-06-26T05:21:05;101330.31;;;22.53;83.83
41250;BME280;26984;59.928;30.306;2023-06-26T05:23:35;101330.53;;;22.62;83.79
41250;BME280;26984;59.928;30.306;2023-06-26T05:26:03;101339.88;;;22.66;83.50
41250;BME280;26984;59.928;30.306;2023-06-26T05:28:32;101335.47;;;22.70;82.95
41250;BME280;26984;59.928;30.306;2023-06-26T05:31:03;101323.09;;;22.73;81.84
41250;BME280;26984;59.928;30.306;2023-06-26T05:33:34;101340.91;;;22.85;80.78
41250;BME280;26984;59.928;30.306;2023-06-26T05:36:04;101334.28;;;22.86;79.98
41250;BME280;26984;59.928;30.306;2023-06-26T05:38:32;101337.59;;;22.88;79.48
41250;BME280;26984;59.928;30.306;2023-06-26T05:41:02;101340.84;;;23.01;79.35
41250;BME280;26984;59.928;30.306;2023-06-26T05:43:30;101332.91;;;22.99;78.67
41250;BME280;26984;59.928;30.306;2023-06-26T05:45:58;101327.94;;;23.01;77.83
41250;BME280;26984;59.928;30.306;2023-06-26T05:48:26;101332.03;;;23.09;77.76
41250;BME280;26984;59.928;30.306;2023-06-26T05:50:55;101330.34;;;23.13;76.52
41250;BME280;26984;59.928;30.306;2023-06-26T05:53:23;101333.09;;;23.13;76.03
41250;BME280;26984;59.928;30.306;2023-06-26T05:55:52;101334.44;;;23.15;76.17
41250;BME280;26984;59.928;30.306;2023-06-26T05:58:24;101323.44;;;23.21;75.12
41250;BME280;26984;59.928;30.306;2023-06-26T06:00:53;101325.94;;;23.17;75.86
41250;BME280;26984;59.928;30.306;2023-06-26T06:03:21;101328.69;;;23.12;75.80
41250;BME280;26984;59.928;30.306;2023-06-26T06:05:49;101328.94;;;23.21;75.63
41250;BME280;26984;59.928;30.306;2023-06-26T06:08:17;101331.06;;;23.29;75.72
41250;BME280;26984;59.928;30.306;2023-06-26T06:10:45;101328.06;;;23.30;74.76
41250;BME280;26984;59.928;30.306;2023-06-26T06:13:13;101329.13;;;23.34;75.35
41250;BME280;26984;59.928;30.306;2023-06-26T06:15:42;101330.13;;;23.49;75.53
41250;BME280;26984;59.928;30.306;2023-06-26T06:18:10;101330.91;;;23.54;74.28
41250;BME280;26984;59.928;30.306;2023-06-26T06:20:38;101329.19;;;23.63;73.28
41250;BME280;26984;59.928;30.306;2023-06-26T06:23:06;101328.06;;;23.70;72.60
41250;BME280;26984;59.928;30.306;2023-06-26T06:25:34;101313.78;;;23.68;72.96
41250;BME280;26984;59.928;30.306;2023-06-26T06:28:03;101339.22;;;23.83;72.27
41250;BME280;26984;59.928;30.306;2023-06-26T06:30:31;101332.94;;;23.78;72.65
41250;BME280;26984;59.928;30.306;2023-06-26T06:33:01;101326.31;;;23.84;72.81
41250;BME280;26984;59.928;30.306;2023-06-26T06:35:29;101331.34;;;23.72;72.94
41250;BME280;26984;59.928;30.306;2023-06-26T06:37:57;101333.44;;;23.85;72.22
41250;BME280;26984;59.928;30.306;2023-06-26T06:40:25;101325.03;;;24.00;70.27
41250;BME280;26984;59.928;30.306;2023-06-26T06:42:53;101334.91;;;24.06;70.82
41250;BME280;26984;59.928;30.306;2023-06-26T06:45:21;101326.91;;;24.05;71.15
41250;BME280;26984;59.928;30.306;2023-06-26T06:47:49;101328.91;;;23.99;70.52
41250;BME280;26984;59.928;30.306;2023-06-26T06:50:18;101318.31;;;24.11;70.92
41250;BME280;26984;59.928;30.306;2023-06-26T06:52:46;101319.84;;;23.99;70.11
41250;BME280;26984;59.928;30.306;2023-06-26T06:55:14;101323.91;;;24.01;70.84
41250;BME280;26984;59.928;30.306;2023-06-26T06:57:42;101321.31;;;24.15;70.12
41250;BME280;26984;59.928;30.306;2023-06-26T07:00:12;101310.13;;;24.06;71.25
41250;BME280;26984;59.928;30.306;2023-06-26T07:02:43;101322.69;;;23.88;72.68
41250;BME280;26984;59.928;30.306;2023-06-26T07:05:11;101330.47;;;23.76;73.55
41250;BME280;26984;59.928;30.306;2023-06-26T07:07:41;101322.13;;;23.86;73.42
41250;BME280;26984;59.928;30.306;2023-06-26T07:10:10;101320.78;;;24.13;72.59
41250;BME280;26984;59.928;30.306;2023-06-26T07:12:39;101321.66;;;24.37;70.25
41250;BME280;26984;59.928;30.306;2023-06-26T07:15:07;101321.13;;;24.59;67.74
41250;BME280;26984;59.928;30.306;2023-06-26T07:17:35;101325.41;;;24.71;67.36
41250;BME280;26984;59.928;30.306;2023-06-26T07:20:06;101321.41;;;24.82;67.12
41250;BME280;26984;59.928;30.306;2023-06-26T07:22:35;101290.53;;;24.61;66.46
41250;BME280;26984;59.928;30.306;2023-06-26T07:25:05;101320.03;;;24.79;66.10
41250;BME280;26984;59.928;30.306;2023-06-26T07:27:35;101327.00;;;24.77;66.31
41250;BME280;26984;59.928;30.306;2023-06-26T07:30:03;101330.31;;;24.98;66.00
41250;BME280;26984;59.928;30.306;2023-06-26T07:32:31;101318.97;;;24.99;65.70
41250;BME280;26984;59.928;30.306;2023-06-26T07:34:59;101325.38;;;24.95;65.34
41250;BME280;26984;59.928;30.306;2023-06-26T07:37:27;101326.78;;;24.92;65.22
41250;BME280;26984;59.928;30.306;2023-06-26T07:39:55;101327.69;;;25.06;64.96
41250;BME280;26984;59.928;30.306;2023-06-26T07:42:25;101327.09;;;25.09;64.46
41250;BME280;26984;59.928;30.306;2023-06-26T07:44:53;101324.34;;;25.09;64.29
41250;BME280;26984;59.928;30.306;2023-06-26T07:47:21;101322.19;;;25.06;64.72
41250;BME280;26984;59.928;30.306;2023-06-26T07:49:48;101324.00;;;25.16;64.63
41250;BME280;26984;59.928;30.306;2023-06-26T07:52:18;101312.06;;;25.21;63.95
41250;BME280;26984;59.928;30.306;2023-06-26T07:54:46;101307.00;;;25.09;62.92
41250;BME280;26984;59.928;30.306;2023-06-26T07:57:17;101293.47;;;24.89;62.99
41250;BME280;26984;59.928;30.306;2023-06-26T07:59:48;101303.47;;;25.03;63.34
41250;BME280;26984;59.928;30.306;2023-06-26T08:02:16;101315.81;;;25.30;63.21
41250;BME280;26984;59.928;30.306;2023-06-26T08:04:44;101307.88;;;25.42;62.74
41250;BME280;26984;59.928;30.306;2023-06-26T08:07:12;101319.53;;;25.72;61.24
41250;BME280;26984;59.928;30.306;2023-06-26T08:09:40;101312.50;;;25.98;59.89
41250;BME280;26984;59.928;30.306;2023-06-26T08:12:09;101310.56;;;25.99;59.19
41250;BME280;26984;59.928;30.306;2023-06-26T08:14:37;101307.81;;;26.13;59.24
41250;BME280;26984;59.928;30.306;2023-06-26T08:17:06;101300.06;;;26.15;60.08
41250;BME280;26984;59.928;30.306;2023-06-26T08:19:34;101312.94;;;26.19;59.23
41250;BME280;26984;59.928;30.306;2023-06-26T08:22:02;101307.59;;;26.09;57.78
41250;BME280;26984;59.928;30.306;2023-06-26T08:24:30;101292.66;;;25.96;58.45
41250;BME280;26984;59.928;30.306;2023-06-26T08:26:58;101307.50;;;26.14;58.18
41250;BME280;26984;59.928;30.306;2023-06-26T08:29:26;101310.06;;;26.11;57.57
41250;BME280;26984;59.928;30.306;2023-06-26T08:31:54;101292.19;;;26.08;57.88
41250;BME280;26984;59.928;30.306;2023-06-26T08:34:24;101304.88;;;26.23;57.05
41250;BME280;26984;59.928;30.306;2023-06-26T08:36:52;101299.75;;;26.30;57.26
41250;BME280;26984;59.928;30.306;2023-06-26T08:39:20;101297.28;;;26.28;56.59
41250;BME280;26984;59.928;30.306;2023-06-26T08:41:48;101299.44;;;26.32;57.64
41250;BME280;26984;59.928;30.306;2023-06-26T08:44:16;101295.25;;;26.20;57.48
41250;BME280;26984;59.928;30.306;2023-06-26T08:46:44;101305.25;;;26.02;57.76
41250;BME280;26984;59.928;30.306;2023-06-26T08:49:16;101302.47;;;26.02;58.79
41250;BME280;26984;59.928;30.306;2023-06-26T08:51:52;101308.50;;;25.91;59.43
41250;BME280;26984;59.928;30.306;2023-06-26T08:54:27;101301.88;;;25.73;60.10
41250;BME280;26984;59.928;30.306;2023-06-26T08:56:59;101310.31;;;25.63;60.00
41250;BME280;26984;59.928;30.306;2023-06-26T08:59:28;101318.44;;;25.54;59.94
41250;BME280;26984;59.928;30.306;2023-06-26T09:01:56;101305.31;;;25.65;59.86
41250;BME280;26984;59.928;30.306;2023-06-26T09:04:25;101300.97;;;25.77;59.62
41250;BME280;26984;59.928;30.306;2023-06-26T09:06:54;101292.97;;;25.95;58.33
41250;BME280;26984;59.928;30.306;2023-06-26T09:09:22;101287.25;;;26.05;57.47
41250;BME280;26984;59.928;30.306;2023-06-26T09:11:50;101301.72;;;26.30;57.17
41250;BME280;26984;59.928;30.306;2023-06-26T09:14:18;101298.75;;;26.26;56.82
41250;BME280;26984;59.928;30.306;2023-06-26T09:16:46;101296.06;;;26.21;56.79
41250;BME280;26984;59.928;30.306;2023-06-26T09:19:14;101298.63;;;26.17;56.82
41250;BME280;26984;59.928;30.306;2023-06-26T09:21:43;101297.19;;;26.20;56.42
41250;BME280;26984;59.928;30.306;2023-06-26T09:24:13;101294.97;;;26.22;56.53
41250;BME280;26984;59.928;30.306;2023-06-26T09:26:41;101289.94;;;26.38;56.61
41250;BME280;26984;59.928;30.306;2023-06-26T09:29:09;101282.56;;;26.61;56.08
41250;BME280;26984;59.928;30.306;2023-06-26T09:31:37;101279.97;;;26.92;55.04
41250;BME280;26984;59.928;30.306;2023-06-26T09:34:06;101277.31;;;27.01;54.82
41250;BME280;26984;59.928;30.306;2023-06-26T09:36:34;101281.41;;;26.89;54.45
41250;BME280;26984;59.928;30.306;2023-06-26T09:39:03;101277.56;;;26.63;55.48
41250;BME280;26984;59.928;30.306;2023-06-26T09:41:36;101274.00;;;26.48;54.22
41250;BME280;26984;59.928;30.306;2023-06-26T09:44:06;101271.94;;;26.40;55.05
41250;BME280;26984;59.928;30.306;2023-06-26T09:46:34;101267.22;;;26.41;54.14
41250;BME280;26984;59.928;30.306;2023-06-26T09:49:05;101267.03;;;26.37;55.20
41250;BME280;26984;59.928;30.306;2023-06-26T09:51:34;101268.03;;;26.27;55.72
41250;BME280;26984;59.928;30.306;2023-06-26T09:54:04;101240.00;;;25.93;56.57
41250;BME280;26984;59.928;30.306;2023-06-26T09:56:32;101246.91;;;25.76;56.68
41250;BME280;26984;59.928;30.306;2023-06-26T09:59:03;101260.84;;;25.85;57.14
41250;BME280;26984;59.928;30.306;2023-06-26T10:01:32;101266.19;;;25.95;56.68
41250;BME280;26984;59.928;30.306;2023-06-26T10:04:00;101263.84;;;26.30;55.96
41250;BME280;26984;59.928;30.306;2023-06-26T10:06:32;101255.69;;;26.53;54.58
41250;BME280;26984;59.928;30.306;2023-06-26T10:09:02;101238.66;;;26.45;53.83
41250;BME280;26984;59.928;30.306;2023-06-26T10:11:37;101257.59;;;26.80;53.79
41250;BME280;26984;59.928;30.306;2023-06-26T10:14:11;101249.84;;;27.04;52.48
41250;BME280;26984;59.928;30.306;2023-06-26T10:16:41;101254.09;;;27.10;51.10
41250;BME280;26984;59.928;30.306;2023-06-26T10:19:10;101240.78;;;26.90;51.57
41250;BME280;26984;59.928;30.306;2023-06-26T10:21:39;101239.28;;;26.70;52.23
41250;BME280;26984;59.928;30.306;2023-06-26T10:24:08;101234.81;;;26.46;53.65
41250;BME280;26984;59.928;30.306;2023-06-26T10:26:43;101241.84;;;26.39;53.96
41250;BME280;26984;59.928;30.306;2023-06-26T10:29:15;101237.16;;;26.25;54.59
41250;BME280;26984;59.928;30.306;2023-06-26T10:31:47;101239.09;;;26.25;54.57
41250;BME280;26984;59.928;30.306;2023-06-26T10:34:16;101235.66;;;26.47;54.78
41250;BME280;26984;59.928;30.306;2023-06-26T10:36:45;101230.78;;;26.66;54.28
41250;BME280;26984;59.928;30.306;2023-06-26T10:39:14;101241.88;;;26.89;54.08
41250;BME280;26984;59.928;30.306;2023-06-26T10:41:42;101232.69;;;26.93;52.36
41250;BME280;26984;59.928;30.306;2023-06-26T10:44:16;101236.94;;;26.99;51.47
41250;BME280;26984;59.928;30.306;2023-06-26T10:46:50;101221.88;;;27.06;51.43
41250;BME280;26984;59.928;30.306;2023-06-26T10:49:19;101237.22;;;27.57;50.99
41250;BME280;26984;59.928;30.306;2023-06-26T10:51:48;101232.88;;;27.96;50.45
41250;BME280;26984;59.928;30.306;2023-06-26T10:54:17;101233.66;;;28.19;49.41
41250;BME280;26984;59.928;30.306;2023-06-26T10:56:46;101241.94;;;28.19;49.83
41250;BME280;26984;59.928;30.306;2023-06-26T10:59:17;101218.09;;;28.00;49.88
41250;BME280;26984;59.928;30.306;2023-06-26T11:01:53;101225.38;;;27.87;49.79
41250;BME280;26984;59.928;30.306;2023-06-26T11:04:37;101233.69;;;27.65;50.66
41250;BME280;26984;59.928;30.306;2023-06-26T11:07:21;101230.78;;;27.03;51.72
41250;BME280;26984;59.928;30.306;2023-06-26T11:09:54;101239.81;;;26.72;54.25
41250;BME280;26984;59.928;30.306;2023-06-26T11:12:36;101229.69;;;26.54;59.58
41250;BME280;26984;59.928;30.306;2023-06-26T11:15:07;101225.06;;;26.21;62.43
41250;BME280;26984;59.928;30.306;2023-06-26T11:17:36;101225.47;;;25.87;64.13
41250;BME280;26984;59.928;30.306;2023-06-26T11:20:06;101205.16;;;25.64;67.79
41250;BME280;26984;59.928;30.306;2023-06-26T11:22:35;101201.59;;;25.64;63.08
41250;BME280;26984;59.928;30.306;2023-06-26T11:25:05;101215.91;;;25.66;63.25
41250;BME280;26984;59.928;30.306;2023-06-26T11:27:38;101194.47;;;25.76;60.56
41250;BME280;26984;59.928;30.306;2023-06-26T11:30:09;101196.09;;;25.77;58.21
41250;BME280;26984;59.928;30.306;2023-06-26T11:32:38;101201.19;;;25.70;58.14
41250;BME280;26984;59.928;30.306;2023-06-26T11:35:07;101209.16;;;25.58;58.66
41250;BME280;26984;59.928;30.306;2023-06-26T11:37:35;101203.56;;;25.30;58.86
41250;BME280;26984;59.928;30.306;2023-06-26T11:40:16;101206.72;;;25.24;58.33
41250;BME280;26984;59.928;30.306;2023-06-26T11:42:45;101219.97;;;25.03;58.92
41250;BME280;26984;59.928;30.306;2023-06-26T11:45:14;101228.75;;;24.86;63.42
41250;BME280;26984;59.928;30.306;2023-06-26T11:47:43;101236.78;;;24.64;69.65
41250;BME280;26984;59.928;30.306;2023-06-26T11:50:16;101234.06;;;24.40;70.63
41250;BME280;26984;59.928;30.306;2023-06-26T11:52:44;101229.75;;;24.04;73.43
41250;BME280;26984;59.928;30.306;2023-06-26T11:55:12;101226.53;;;23.73;73.82
41250;BME280;26984;59.928;30.306;2023-06-26T11:57:40;101227.25;;;23.50;78.92
41250;BME280;26984;59.928;30.306;2023-06-26T12:00:13;101232.94;;;23.29;79.34
41250;BME280;26984;59.928;30.306;2023-06-26T12:02:43;101230.38;;;23.04;80.48
41250;BME280;26984;59.928;30.306;2023-06-26T12:05:11;101228.00;;;22.82;79.62
41250;BME280;26984;59.928;30.306;2023-06-26T12:07:41;101227.81;;;22.68;81.23
41250;BME280;26984;59.928;30.306;2023-06-26T12:10:11;101224.94;;;22.39;80.88
41250;BME280;26984;59.928;30.306;2023-06-26T12:12:39;101229.69;;;22.08;85.28
41250;BME280;26984;59.928;30.306;2023-06-26T12:15:09;101236.31;;;21.76;88.01
41250;BME280;26984;59.928;30.306;2023-06-26T12:17:43;101249.78;;;21.62;91.68
41250;BME280;26984;59.928;30.306;2023-06-26T12:20:18;101257.47;;;21.40;96.70
41250;BME280;26984;59.928;30.306;2023-06-26T12:22:50;101250.84;;;21.10;100.00
41250;BME280;26984;59.928;30.306;2023-06-26T12:25:22;101260.56;;;20.65;100.00
41250;BME280;26984;59.928;30.306;2023-06-26T12:27:51;101253.91;;;19.93;100.00
41250;BME280;26984;59.928;30.306;2023-06-26T12:30:18;101238.75;;;19.43;100.00
41250;BME280;26984;59.928;30.306;2023-06-26T12:32:48;101251.19;;;19.29;100.00
41250;BME280;26984;59.928;30.306;2023-06-26T12:35:16;101257.94;;;19.21;100.00
41250;BME280;26984;59.928;30.306;2023-06-26T12:37:45;101264.97;;;19.17;100.00
41250;BME280;26984;59.928;30.306;2023-06-26T12:40:17;101257.38;;;19.19;100.00
41250;BME280;26984;59.928;30.306;2023-06-26T12:42:48;101265.72;;;19.07;100.00
41250;BME280;26984;59.928;30.306;2023-06-26T12:45:16;101263.44;;;18.99;100.00